sensor_id;sensor_type;location;lat;lon;timestamp;P1;durP1;ratioP1;P2;durP2;ratioP2
60917;SDS011;46792;38.854;-9.384;2023-01-30T00:00:07;6.93;;;4.40;;
60917;SDS011;46792;38.854;-9.384;2023-01-30T00:02:08;5.95;;;5.35;;
60917;SDS011;46792;38.854;-9.384;2023-01-30T00:04:28;7.97;;;5.03;;
60917;SDS011;46792;38.854;-9.384;2023-01-30T00:06:31;7.13;;;5.38;;
60917;SDS011;46792;38.854;-9.384;2023-01-30T00:08:32;6.07;;;5.03;;
60917;SDS011;46792;38.854;-9.384;2023-01-30T00:10:35;7.32;;;5.68;;
60917;SDS011;46792;38.854;-9.384;2023-01-30T00:12:36;10.55;;;4.95;;
60917;SDS011;46792;38.854;-9.384;2023-01-30T00:14:36;7.63;;;5.40;;
60917;SDS011;46792;38.854;-9.384;2023-01-30T00:16:37;7.30;;;5.30;;
60917;SDS011;46792;38.854;-9.384;2023-01-30T00:18:38;9.57;;;5.35;;
60917;SDS011;46792;38.854;-9.384;2023-01-30T00:20:39;7.05;;;5.75;;
60917;SDS011;46792;38.854;-9.384;2023-01-30T00:22:58;7.13;;;5.63;;
60917;SDS011;46792;38.854;-9.384;2023-01-30T00:24:59;7.72;;;5.70;;
60917;SDS011;46792;38.854;-9.384;2023-01-30T00:27:00;9.93;;;5.93;;
60917;SDS011;46792;38.854;-9.384;2023-01-30T00:29:00;10.80;;;5.57;;
60917;SDS011;46792;38.854;-9.384;2023-01-30T00:31:19;7.50;;;5.00;;
60917;SDS011;46792;38.854;-9.384;2023-01-30T00:33:38;8.43;;;4.60;;
60917;SDS011;46792;38.854;-9.384;2023-01-30T00:35:44;8.18;;;5.13;;
60917;SDS011;46792;38.854;-9.384;2023-01-30T00:37:45;6.05;;;5.07;;
60917;SDS011;46792;38.854;-9.384;2023-01-30T00:39:45;7.10;;;5.68;;
60917;SDS011;46792;38.854;-9.384;2023-01-30T00:41:46;8.20;;;6.20;;
60917;SDS011;46792;38.854;-9.384;2023-01-30T00:44:05;15.90;;;6.85;;
60917;SDS011;46792;38.854;-9.384;2023-01-30T00:46:30;14.60;;;6.75;;
60917;SDS011;46792;38.854;-9.384;2023-01-30T00:48:52;8.10;;;4.97;;
60917;SDS011;46792;38.854;-9.384;2023-01-30T00:51:11;6.50;;;4.75;;
60917;SDS011;46792;38.854;-9.384;2023-01-30T00:53:13;6.10;;;5.05;;
60917;SDS011;46792;38.854;-9.384;2023-01-30T00:55:14;7.65;;;5.57;;
60917;SDS011;46792;38.854;-9.384;2023-01-30T00:57:15;6.00;;;5.25;;
60917;SDS011;46792;38.854;-9.384;2023-01-30T00:59:16;5.40;;;4.90;;
60917;SDS011;46792;38.854;-9.384;2023-01-30T01:01:18;5.65;;;4.97;;
60917;SDS011;46792;38.854;-9.384;2023-01-30T01:03:19;5.80;;;4.57;;
60917;SDS011;46792;38.854;-9.384;2023-01-30T01:05:22;5.68;;;5.03;;
60917;SDS011;46792;38.854;-9.384;2023-01-30T01:07:23;5.95;;;5.07;;
60917;SDS011;46792;38.854;-9.384;2023-01-30T01:09:24;7.03;;;5.35;;
60917;SDS011;46792;38.854;-9.384;2023-01-30T01:11:26;5.75;;;5.22;;
60917;SDS011;46792;38.854;-9.384;2023-01-30T01:13:45;7.55;;;5.15;;
60917;SDS011;46792;38.854;-9.384;2023-01-30T01:15:46;6.10;;;5.20;;
60917;SDS011;46792;38.854;-9.384;2023-01-30T01:17:49;9.75;;;5.65;;
60917;SDS011;46792;38.854;-9.384;2023-01-30T01:20:08;6.00;;;4.93;;
60917;SDS011;46792;38.854;-9.384;2023-01-30T01:22:27;8.63;;;5.45;;
60917;SDS011;46792;38.854;-9.384;2023-01-30T01:24:28;11.57;;;5.35;;
60917;SDS011;46792;38.854;-9.384;2023-01-30T01:26:29;10.43;;;7.75;;
60917;SDS011;46792;38.854;-9.384;2023-01-30T01:28:29;11.80;;;8.88;;
60917;SDS011;46792;38.854;-9.384;2023-01-30T01:30:30;11.35;;;7.97;;
60917;SDS011;46792;38.854;-9.384;2023-01-30T01:32:31;9.25;;;8.05;;
60917;SDS011;46792;38.854;-9.384;2023-01-30T01:34:31;7.57;;;5.82;;
60917;SDS011;46792;38.854;-9.384;2023-01-30T01:36:33;8.55;;;5.97;;
60917;SDS011;46792;38.854;-9.384;2023-01-30T01:38:36;5.32;;;4.55;;
60917;SDS011;46792;38.854;-9.384;2023-01-30T01:40:38;5.15;;;4.65;;
60917;SDS011;46792;38.854;-9.384;2023-01-30T01:42:57;5.72;;;4.07;;
60917;SDS011;46792;38.854;-9.384;2023-01-30T01:47:14;6.40;;;4.03;;
60917;SDS011;46792;38.854;-9.384;2023-01-30T01:49:31;6.40;;;3.90;;
60917;SDS011;46792;38.854;-9.384;2023-01-30T01:51:39;4.13;;;3.75;;
60917;SDS011;46792;38.854;-9.384;2023-01-30T01:53:49;7.13;;;3.50;;
60917;SDS011;46792;38.854;-9.384;2023-01-30T01:55:53;5.80;;;3.55;;
60917;SDS011;46792;38.854;-9.384;2023-01-30T02:00:10;3.53;;;3.22;;
60917;SDS011;46792;38.854;-9.384;2023-01-30T02:02:15;3.20;;;2.95;;
60917;SDS011;46792;38.854;-9.384;2023-01-30T02:04:16;3.65;;;3.28;;
60917;SDS011;46792;38.854;-9.384;2023-01-30T02:06:37;4.40;;;3.58;;
60917;SDS011;46792;38.854;-9.384;2023-01-30T02:08:42;4.55;;;3.17;;
60917;SDS011;46792;38.854;-9.384;2023-01-30T02:12:59;6.18;;;4.13;;
60917;SDS011;46792;38.854;-9.384;2023-01-30T02:15:00;4.53;;;3.47;;
60917;SDS011;46792;38.854;-9.384;2023-01-30T02:41:09;4.50;;;3.45;;
60917;SDS011;46792;38.854;-9.384;2023-01-30T02:43:35;3.75;;;3.35;;
60917;SDS011;46792;38.854;-9.384;2023-01-30T02:48:20;5.60;;;3.58;;
60917;SDS011;46792;38.854;-9.384;2023-01-30T02:52:50;3.95;;;3.58;;
60917;SDS011;46792;38.854;-9.384;2023-01-30T02:54:52;3.67;;;3.38;;
60917;SDS011;46792;38.854;-9.384;2023-01-30T03:16:36;5.55;;;4.38;;
60917;SDS011;46792;38.854;-9.384;2023-01-30T03:18:41;4.60;;;3.97;;
60917;SDS011;46792;38.854;-9.384;2023-01-30T03:20:43;6.80;;;5.03;;
60917;SDS011;46792;38.854;-9.384;2023-01-30T03:22:44;5.07;;;4.47;;
60917;SDS011;46792;38.854;-9.384;2023-01-30T03:30:01;14.10;;;5.55;;
60917;SDS011;46792;38.854;-9.384;2023-01-30T03:32:22;6.82;;;4.90;;
60917;SDS011;46792;38.854;-9.384;2023-01-30T03:39:38;5.45;;;4.60;;
60917;SDS011;46792;38.854;-9.384;2023-01-30T03:41:40;7.57;;;5.32;;
60917;SDS011;46792;38.854;-9.384;2023-01-30T03:43:41;5.05;;;4.22;;
60917;SDS011;46792;38.854;-9.384;2023-01-30T03:45:42;5.35;;;4.40;;
60917;SDS011;46792;38.854;-9.384;2023-01-30T03:47:43;6.72;;;4.78;;
60917;SDS011;46792;38.854;-9.384;2023-01-30T03:57:41;6.63;;;4.32;;
60917;SDS011;46792;38.854;-9.384;2023-01-30T03:59:42;6.65;;;4.25;;
60917;SDS011;46792;38.854;-9.384;2023-01-30T04:01:45;8.20;;;5.47;;
60917;SDS011;46792;38.854;-9.384;2023-01-30T04:03:46;7.80;;;4.88;;
60917;SDS011;46792;38.854;-9.384;2023-01-30T04:05:48;8.02;;;4.55;;
60917;SDS011;46792;38.854;-9.384;2023-01-30T04:08:07;10.95;;;5.18;;
60917;SDS011;46792;38.854;-9.384;2023-01-30T04:10:08;7.70;;;4.82;;
60917;SDS011;46792;38.854;-9.384;2023-01-30T04:12:10;7.75;;;4.63;;
60917;SDS011;46792;38.854;-9.384;2023-01-30T04:14:18;9.27;;;4.80;;
60917;SDS011;46792;38.854;-9.384;2023-01-30T04:16:39;6.22;;;4.82;;
60917;SDS011;46792;38.854;-9.384;2023-01-30T04:18:57;6.45;;;4.38;;
60917;SDS011;46792;38.854;-9.384;2023-01-30T04:21:00;5.10;;;4.20;;
60917;SDS011;46792;38.854;-9.384;2023-01-30T04:23:09;4.70;;;4.13;;
60917;SDS011;46792;38.854;-9.384;2023-01-30T04:25:28;7.72;;;4.57;;
60917;SDS011;46792;38.854;-9.384;2023-01-30T04:27:47;4.18;;;3.53;;
60917;SDS011;46792;38.854;-9.384;2023-01-30T04:29:52;4.22;;;3.80;;
60917;SDS011;46792;38.854;-9.384;2023-01-30T04:31:52;5.00;;;3.58;;
60917;SDS011;46792;38.854;-9.384;2023-01-30T04:33:57;4.22;;;3.60;;
60917;SDS011;46792;38.854;-9.384;2023-01-30T04:35:58;6.88;;;3.60;;
60917;SDS011;46792;38.854;-9.384;2023-01-30T04:38:00;5.70;;;3.72;;
60917;SDS011;46792;38.854;-9.384;2023-01-30T04:40:01;4.47;;;3.78;;
60917;SDS011;46792;38.854;-9.384;2023-01-30T04:42:02;6.72;;;3.75;;
60917;SDS011;46792;38.854;-9.384;2023-01-30T04:44:09;4.47;;;3.70;;
60917;SDS011;46792;38.854;-9.384;2023-01-30T04:46:33;4.47;;;3.95;;
60917;SDS011;46792;38.854;-9.384;2023-01-30T04:48:34;3.90;;;3.53;;
60917;SDS011;46792;38.854;-9.384;2023-01-30T04:50:36;3.70;;;3.17;;
60917;SDS011;46792;38.854;-9.384;2023-01-30T04:52:37;5.22;;;3.35;;
60917;SDS011;46792;38.854;-9.384;2023-01-30T04:54:38;3.58;;;3.28;;
60917;SDS011;46792;38.854;-9.384;2023-01-30T04:56:39;4.20;;;3.63;;
60917;SDS011;46792;38.854;-9.384;2023-01-30T04:58:40;3.78;;;3.47;;
60917;SDS011;46792;38.854;-9.384;2023-01-30T05:00:42;5.38;;;3.55;;
60917;SDS011;46792;38.854;-9.384;2023-01-30T05:02:42;4.00;;;3.50;;
60917;SDS011;46792;38.854;-9.384;2023-01-30T05:04:43;5.95;;;4.40;;
60917;SDS011;46792;38.854;-9.384;2023-01-30T05:06:43;6.70;;;3.95;;
60917;SDS011;46792;38.854;-9.384;2023-01-30T05:09:03;6.35;;;4.55;;
60917;SDS011;46792;38.854;-9.384;2023-01-30T05:11:04;7.38;;;4.97;;
60917;SDS011;46792;38.854;-9.384;2023-01-30T05:13:04;6.45;;;5.18;;
60917;SDS011;46792;38.854;-9.384;2023-01-30T05:15:06;5.45;;;4.03;;
60917;SDS011;46792;38.854;-9.384;2023-01-30T05:17:07;5.55;;;3.45;;
60917;SDS011;46792;38.854;-9.384;2023-01-30T05:19:08;6.70;;;3.28;;
60917;SDS011;46792;38.854;-9.384;2023-01-30T05:21:16;4.30;;;3.90;;
60917;SDS011;46792;38.854;-9.384;2023-01-30T05:23:21;4.57;;;3.70;;
60917;SDS011;46792;38.854;-9.384;2023-01-30T05:25:22;4.13;;;3.55;;
60917;SDS011;46792;38.854;-9.384;2023-01-30T05:27:22;3.50;;;3.20;;
60917;SDS011;46792;38.854;-9.384;2023-01-30T05:29:23;4.22;;;3.83;;
60917;SDS011;46792;38.854;-9.384;2023-01-30T05:31:24;4.22;;;3.15;;
60917;SDS011;46792;38.854;-9.384;2023-01-30T05:33:24;3.67;;;3.30;;
60917;SDS011;46792;38.854;-9.384;2023-01-30T05:35:25;4.22;;;3.42;;
60917;SDS011;46792;38.854;-9.384;2023-01-30T05:37:25;3.70;;;3.20;;
60917;SDS011;46792;38.854;-9.384;2023-01-30T05:39:29;6.45;;;3.75;;
60917;SDS011;46792;38.854;-9.384;2023-01-30T05:41:30;5.07;;;3.33;;
60917;SDS011;46792;38.854;-9.384;2023-01-30T05:43:31;3.35;;;2.95;;
60917;SDS011;46792;38.854;-9.384;2023-01-30T05:45:32;4.78;;;4.15;;
60917;SDS011;46792;38.854;-9.384;2023-01-30T05:47:32;3.25;;;3.05;;
60917;SDS011;46792;38.854;-9.384;2023-01-30T05:49:51;6.65;;;3.30;;
60917;SDS011;46792;38.854;-9.384;2023-01-30T05:51:52;4.85;;;3.20;;
60917;SDS011;46792;38.854;-9.384;2023-01-30T05:53:53;5.18;;;4.00;;
60917;SDS011;46792;38.854;-9.384;2023-01-30T05:55:57;3.78;;;3.10;;
60917;SDS011;46792;38.854;-9.384;2023-01-30T05:57:58;3.97;;;3.50;;
60917;SDS011;46792;38.854;-9.384;2023-01-30T05:59:59;6.22;;;4.10;;
60917;SDS011;46792;38.854;-9.384;2023-01-30T06:01:59;4.15;;;3.75;;
60917;SDS011;46792;38.854;-9.384;2023-01-30T06:04:00;5.78;;;3.33;;
60917;SDS011;46792;38.854;-9.384;2023-01-30T06:06:02;5.72;;;4.53;;
60917;SDS011;46792;38.854;-9.384;2023-01-30T06:08:05;5.50;;;4.32;;
60917;SDS011;46792;38.854;-9.384;2023-01-30T06:10:07;5.40;;;3.63;;
60917;SDS011;46792;38.854;-9.384;2023-01-30T06:12:08;9.75;;;4.47;;
60917;SDS011;46792;38.854;-9.384;2023-01-30T06:14:08;4.22;;;3.83;;
60917;SDS011;46792;38.854;-9.384;2023-01-30T06:16:10;4.05;;;3.53;;
60917;SDS011;46792;38.854;-9.384;2023-01-30T06:18:12;7.13;;;4.32;;
60917;SDS011;46792;38.854;-9.384;2023-01-30T06:20:12;4.75;;;3.90;;
60917;SDS011;46792;38.854;-9.384;2023-01-30T06:22:13;4.75;;;3.70;;
60917;SDS011;46792;38.854;-9.384;2023-01-30T06:24:13;4.43;;;3.30;;
60917;SDS011;46792;38.854;-9.384;2023-01-30T06:26:14;3.63;;;3.08;;
60917;SDS011;46792;38.854;-9.384;2023-01-30T06:28:15;4.32;;;3.90;;
60917;SDS011;46792;38.854;-9.384;2023-01-30T06:30:16;4.38;;;3.97;;
60917;SDS011;46792;38.854;-9.384;2023-01-30T06:32:17;4.25;;;3.45;;
60917;SDS011;46792;38.854;-9.384;2023-01-30T06:34:18;3.85;;;3.55;;
60917;SDS011;46792;38.854;-9.384;2023-01-30T06:36:18;3.88;;;3.42;;
60917;SDS011;46792;38.854;-9.384;2023-01-30T06:38:19;3.67;;;3.30;;
60917;SDS011;46792;38.854;-9.384;2023-01-30T06:40:20;5.15;;;3.85;;
60917;SDS011;46792;38.854;-9.384;2023-01-30T06:42:20;3.60;;;3.30;;
60917;SDS011;46792;38.854;-9.384;2023-01-30T06:44:21;3.53;;;3.10;;
60917;SDS011;46792;38.854;-9.384;2023-01-30T06:46:22;3.83;;;3.42;;
60917;SDS011;46792;38.854;-9.384;2023-01-30T06:48:23;3.35;;;3.10;;
60917;SDS011;46792;38.854;-9.384;2023-01-30T06:50:24;4.47;;;3.17;;
60917;SDS011;46792;38.854;-9.384;2023-01-30T06:52:27;3.38;;;2.97;;
60917;SDS011;46792;38.854;-9.384;2023-01-30T06:54:27;3.80;;;3.30;;
60917;SDS011;46792;38.854;-9.384;2023-01-30T06:56:28;6.63;;;3.90;;
60917;SDS011;46792;38.854;-9.384;2023-01-30T06:58:29;5.93;;;3.90;;
60917;SDS011;46792;38.854;-9.384;2023-01-30T07:00:30;5.38;;;3.85;;
60917;SDS011;46792;38.854;-9.384;2023-01-30T07:02:31;4.63;;;3.83;;
60917;SDS011;46792;38.854;-9.384;2023-01-30T07:04:34;4.25;;;3.38;;
60917;SDS011;46792;38.854;-9.384;2023-01-30T07:06:34;5.55;;;4.35;;
60917;SDS011;46792;38.854;-9.384;2023-01-30T07:08:35;3.60;;;3.30;;
60917;SDS011;46792;38.854;-9.384;2023-01-30T07:10:36;5.43;;;3.45;;
60917;SDS011;46792;38.854;-9.384;2023-01-30T07:12:37;5.30;;;3.60;;
60917;SDS011;46792;38.854;-9.384;2023-01-30T07:14:37;4.90;;;3.47;;
60917;SDS011;46792;38.854;-9.384;2023-01-30T07:16:38;4.90;;;3.90;;
60917;SDS011;46792;38.854;-9.384;2023-01-30T07:18:38;4.75;;;3.58;;
60917;SDS011;46792;38.854;-9.384;2023-01-30T07:20:39;4.72;;;3.53;;
60917;SDS011;46792;38.854;-9.384;2023-01-30T07:22:41;10.05;;;3.78;;
60917;SDS011;46792;38.854;-9.384;2023-01-30T07:24:42;9.55;;;3.40;;
60917;SDS011;46792;38.854;-9.384;2023-01-30T07:26:42;6.00;;;3.83;;
60917;SDS011;46792;38.854;-9.384;2023-01-30T07:28:43;4.70;;;3.85;;
60917;SDS011;46792;38.854;-9.384;2023-01-30T07:30:43;5.55;;;3.63;;
60917;SDS011;46792;38.854;-9.384;2023-01-30T07:33:03;7.03;;;3.83;;
60917;SDS011;46792;38.854;-9.384;2023-01-30T07:35:25;4.30;;;3.63;;
60917;SDS011;46792;38.854;-9.384;2023-01-30T07:37:27;3.75;;;3.40;;
60917;SDS011;46792;38.854;-9.384;2023-01-30T07:39:27;6.55;;;3.75;;
60917;SDS011;46792;38.854;-9.384;2023-01-30T07:41:28;4.00;;;3.60;;
60917;SDS011;46792;38.854;-9.384;2023-01-30T07:43:29;4.05;;;3.58;;
60917;SDS011;46792;38.854;-9.384;2023-01-30T07:45:39;4.03;;;3.63;;
60917;SDS011;46792;38.854;-9.384;2023-01-30T07:47:42;5.75;;;4.13;;
60917;SDS011;46792;38.854;-9.384;2023-01-30T07:49:43;6.88;;;4.53;;
60917;SDS011;46792;38.854;-9.384;2023-01-30T07:51:43;4.90;;;3.92;;
60917;SDS011;46792;38.854;-9.384;2023-01-30T07:53:44;4.72;;;3.85;;
60917;SDS011;46792;38.854;-9.384;2023-01-30T07:55:49;4.13;;;3.53;;
60917;SDS011;46792;38.854;-9.384;2023-01-30T07:58:10;5.43;;;4.00;;
60917;SDS011;46792;38.854;-9.384;2023-01-30T08:00:13;5.85;;;4.13;;
60917;SDS011;46792;38.854;-9.384;2023-01-30T08:02:14;5.43;;;3.95;;
